Time;durP1;ratioP1;P1;durP2;ratioP2;P2;SDS_P1;SDS_P2;PMS_P1;PMS_P2;Temp;Humidity;BMP_temperature;BMP_pressure;BME280_temperature;BME280_humidity;BME280_pressure;Samples;Min_cycle;Max_cycle;Signal;HPM_P1;HPM_P2
2022/03/15 00:00:38;;;;;;;86.87;37.73;;;;;;;;;;5048423;28;20445;-63
2022/03/15 00:03:05;;;;;;;98.87;40.47;;;;;;;;;;5048940;28;20532;-63
2022/03/15 00:05:32;;;;;;;96.17;40.03;;;;;;;;;;5035835;28;20523;-63
2022/03/15 00:07:59;;;;;;;89.70;39.97;;;;;;;;;;5038955;28;20793;-64
2022/03/15 00:10:27;;;;;;;93.67;38.23;;;;;;;;;;5033846;28;20446;-63
2022/03/15 00:12:56;;;;;;;80.07;34.67;;;;;;;;;;5031079;28;20421;-63
2022/03/15 00:15:24;;;;;;;68.50;31.17;;;;;;;;;;5029747;28;20794;-63
2022/03/15 00:17:51;;;;;;;76.17;33.37;;;;;;;;;;5032578;28;20429;-63
2022/03/15 00:20:22;;;;;;;80.37;34.90;;;;;;;;;;5049593;28;20865;-63
2022/03/15 00:22:49;;;;;;;110.00;41.10;;;;;;;;;;5039329;28;20460;-63
2022/03/15 00:25:16;;;;;;;111.03;42.57;;;;;;;;;;5037453;28;20601;-63
2022/03/15 00:27:44;;;;;;;102.93;40.17;;;;;;;;;;5029447;28;20470;-63
2022/03/15 00:30:11;;;;;;;122.37;44.47;;;;;;;;;;5032732;28;20441;-63
2022/03/15 00:32:37;;;;;;;107.97;44.97;;;;;;;;;;5045498;28;20534;-63
2022/03/15 00:35:09;;;;;;;102.37;40.43;;;;;;;;;;5029322;28;20759;-64
2022/03/15 00:37:36;;;;;;;89.80;37.97;;;;;;;;;;5046212;28;20457;-63
2022/03/15 00:40:04;;;;;;;112.17;41.20;;;;;;;;;;5048891;28;20459;-62
2022/03/15 00:42:30;;;;;;;90.20;37.50;;;;;;;;;;5036295;28;20473;-63
2022/03/15 00:44:59;;;;;;;91.67;38.50;;;;;;;;;;5047745;28;20500;-62
2022/03/15 00:47:26;;;;;;;86.20;36.53;;;;;;;;;;5047766;28;20483;-63
2022/03/15 00:49:53;;;;;;;78.43;33.30;;;;;;;;;;5047631;28;20956;-63
2022/03/15 00:52:20;;;;;;;69.90;31.67;;;;;;;;;;5047592;28;20499;-62
2022/03/15 00:54:47;;;;;;;70.67;32.47;;;;;;;;;;5049098;28;20452;-63
2022/03/15 00:57:16;;;;;;;73.73;33.13;;;;;;;;;;5044246;28;20469;-64
2022/03/15 00:59:42;;;;;;;68.83;32.33;;;;;;;;;;5027244;28;20534;-63
2022/03/15 01:02:09;;;;;;;74.70;33.83;;;;;;;;;;5026532;28;20896;-63
2022/03/15 01:39:38;;;;;;;60.97;28.33;;;;;;;;;;5041803;28;20472;-63
2022/03/15 01:42:05;;;;;;;58.40;28.70;;;;;;;;;;5048041;28;21060;-63
2022/03/15 01:44:33;;;;;;;58.97;28.00;;;;;;;;;;5026200;28;20530;-63
2022/03/15 01:47:00;;;;;;;54.57;27.60;;;;;;;;;;5026869;28;20438;-63
2022/03/15 01:49:29;;;;;;;57.37;26.50;;;;;;;;;;5042119;28;20504;-63
2022/03/15 01:51:57;;;;;;;53.07;27.50;;;;;;;;;;5045456;28;20433;-63
2022/03/15 01:54:24;;;;;;;65.57;30.60;;;;;;;;;;5047551;28;20445;-63
2022/03/15 01:56:51;;;;;;;63.37;29.87;;;;;;;;;;5046775;28;20444;-63
2022/03/15 01:59:17;;;;;;;75.97;32.47;;;;;;;;;;5040693;28;20485;-63
2022/03/15 02:01:44;;;;;;;78.93;35.73;;;;;;;;;;5027368;28;20535;-63
2022/03/15 02:04:11;;;;;;;89.93;37.30;;;;;;;;;;5028066;28;20505;-63
2022/03/15 02:06:38;;;;;;;72.93;32.90;;;;;;;;;;5027294;28;20939;-63
2022/03/15 02:09:13;;;;;;;68.47;31.10;;;;;;;;;;5028092;28;20464;-63
2022/03/15 02:11:40;;;;;;;69.13;30.97;;;;;;;;;;5027090;28;20463;-63
2022/03/15 02:14:07;;;;;;;70.20;31.60;;;;;;;;;;5029324;28;20448;-63
2022/03/15 02:16:34;;;;;;;84.97;37.57;;;;;;;;;;5050849;28;20502;-63
2022/03/15 02:19:00;;;;;;;81.90;34.43;;;;;;;;;;5036522;28;20778;-63
2022/03/15 02:21:27;;;;;;;88.20;37.10;;;;;;;;;;5032228;28;20492;-63
2022/03/15 02:23:54;;;;;;;90.27;40.07;;;;;;;;;;5042850;28;20444;-63
2022/03/15 02:26:21;;;;;;;97.10;40.30;;;;;;;;;;5049731;28;20910;-63
2022/03/15 02:28:47;;;;;;;87.00;38.70;;;;;;;;;;5045393;28;20441;-63
2022/03/15 02:31:15;;;;;;;101.07;40.43;;;;;;;;;;5040780;28;20540;-63
2022/03/15 02:33:42;;;;;;;88.27;39.40;;;;;;;;;;5051129;28;20520;-63
2022/03/15 02:36:10;;;;;;;93.63;38.37;;;;;;;;;;5051659;28;20498;-63
2022/03/15 02:38:37;;;;;;;81.10;37.17;;;;;;;;;;5038948;28;20437;-63
2022/03/15 02:41:03;;;;;;;90.10;38.00;;;;;;;;;;5031257;28;20504;-62
2022/03/15 02:43:30;;;;;;;83.10;36.80;;;;;;;;;;5031165;28;20441;-63
2022/03/15 02:45:59;;;;;;;85.27;36.77;;;;;;;;;;5032299;28;20484;-63
2022/03/15 02:48:26;;;;;;;91.70;37.23;;;;;;;;;;5041632;28;20864;-63
2022/03/15 02:50:53;;;;;;;86.73;36.87;;;;;;;;;;5046819;28;20451;-63
2022/03/15 02:53:20;;;;;;;86.67;35.77;;;;;;;;;;5050793;28;20433;-63
2022/03/15 02:55:47;;;;;;;77.73;34.83;;;;;;;;;;5036960;28;20556;-63
2022/03/15 02:58:14;;;;;;;81.33;36.43;;;;;;;;;;5029780;28;20443;-63
2022/03/15 03:00:41;;;;;;;80.60;35.40;;;;;;;;;;5031055;28;21010;-63
2022/03/15 03:03:08;;;;;;;80.10;36.47;;;;;;;;;;5031919;28;20541;-63
2022/03/15 03:05:35;;;;;;;94.53;38.90;;;;;;;;;;5043997;28;20507;-63
2022/03/15 03:08:04;;;;;;;88.13;39.10;;;;;;;;;;5047923;28;20451;-63
2022/03/15 03:10:33;;;;;;;77.63;34.23;;;;;;;;;;5049014;28;20448;-63
2022/03/15 03:13:00;;;;;;;58.83;27.90;;;;;;;;;;5050556;28;20439;-63
2022/03/15 03:15:27;;;;;;;59.33;28.97;;;;;;;;;;5038882;28;20534;-63
2022/03/15 03:17:53;;;;;;;67.53;30.40;;;;;;;;;;5031689;28;20504;-63
2022/03/15 03:20:21;;;;;;;71.73;30.23;;;;;;;;;;5030331;28;20440;-63
2022/03/15 03:22:53;;;;;;;73.23;30.50;;;;;;;;;;5033438;28;20453;-63
2022/03/15 03:25:20;;;;;;;73.83;31.97;;;;;;;;;;5042605;28;20512;-63
2022/03/15 03:27:46;;;;;;;73.73;33.03;;;;;;;;;;5043010;28;20434;-63
2022/03/15 03:30:13;;;;;;;73.50;32.77;;;;;;;;;;5036467;28;20846;-62
2022/03/15 03:32:41;;;;;;;70.80;31.97;;;;;;;;;;5034820;28;20448;-62
2022/03/15 03:35:08;;;;;;;72.27;31.87;;;;;;;;;;5032988;28;20444;-63
2022/03/15 03:37:35;;;;;;;73.67;32.00;;;;;;;;;;5035457;28;20963;-63
2022/03/15 03:40:07;;;;;;;80.07;33.53;;;;;;;;;;5030055;28;20987;-63
2022/03/15 03:42:35;;;;;;;81.20;33.13;;;;;;;;;;5030591;28;20502;-63
2022/03/15 03:45:01;;;;;;;74.07;30.70;;;;;;;;;;5029992;28;20567;-62
2022/03/15 03:47:29;;;;;;;67.90;30.87;;;;;;;;;;5042366;28;21088;-63
2022/03/15 03:49:55;;;;;;;70.03;32.67;;;;;;;;;;5030126;28;20488;-63
2022/03/15 03:52:24;;;;;;;78.00;33.17;;;;;;;;;;5030179;28;20951;-63
2022/03/15 03:54:51;;;;;;;64.17;30.63;;;;;;;;;;5030515;28;20463;-63
2022/03/15 03:57:19;;;;;;;69.37;32.67;;;;;;;;;;5041943;28;20942;-63
2022/03/15 03:59:46;;;;;;;72.90;33.27;;;;;;;;;;5029919;28;20535;-63
2022/03/15 04:02:13;;;;;;;77.27;34.60;;;;;;;;;;5029625;28;20475;-63
2022/03/15 04:04:39;;;;;;;71.80;32.03;;;;;;;;;;5044491;28;20871;-63
2022/03/15 04:07:11;;;;;;;72.27;33.70;;;;;;;;;;5046206;28;20515;-63
2022/03/15 04:09:41;;;;;;;75.30;32.37;;;;;;;;;;5034963;28;20495;-63
2022/03/15 04:12:07;;;;;;;71.33;33.60;;;;;;;;;;5031883;28;20447;-63
2022/03/15 04:14:34;;;;;;;73.00;31.67;;;;;;;;;;5029702;28;20535;-63
2022/03/15 04:17:02;;;;;;;73.00;34.20;;;;;;;;;;5029706;28;20487;-63
2022/03/15 04:19:29;;;;;;;79.90;35.73;;;;;;;;;;5035182;28;20475;-63
2022/03/15 04:21:57;;;;;;;80.17;33.07;;;;;;;;;;5029696;28;20444;-63
2022/03/15 04:24:23;;;;;;;72.33;32.80;;;;;;;;;;5033276;28;20440;-63
2022/03/15 04:26:50;;;;;;;71.93;33.63;;;;;;;;;;5041244;28;20474;-63
2022/03/15 04:29:17;;;;;;;75.23;34.63;;;;;;;;;;5047251;28;20439;-63
2022/03/15 04:31:44;;;;;;;79.93;34.27;;;;;;;;;;5047708;28;20846;-63
2022/03/15 04:34:11;;;;;;;68.87;34.03;;;;;;;;;;5047138;28;21352;-64
2022/03/15 04:36:39;;;;;;;88.03;36.83;;;;;;;;;;5029146;28;20452;-63
2022/03/15 04:39:06;;;;;;;83.30;36.43;;;;;;;;;;5030388;28;20440;-63
2022/03/15 04:41:33;;;;;;;84.77;35.87;;;;;;;;;;5028995;28;20474;-63
2022/03/15 04:44:00;;;;;;;75.33;34.60;;;;;;;;;;5028861;28;20444;-63
2022/03/15 04:46:26;;;;;;;82.63;38.30;;;;;;;;;;5028809;28;20855;-63
2022/03/15 04:48:54;;;;;;;102.20;42.20;;;;;;;;;;5036382;28;20438;-63
2022/03/15 04:51:21;;;;;;;110.20;47.63;;;;;;;;;;5037480;28;20547;-63
2022/03/15 04:53:47;;;;;;;86.20;39.23;;;;;;;;;;5038435;28;20956;-63
2022/03/15 04:56:14;;;;;;;100.17;40.63;;;;;;;;;;5039770;28;20447;-63
2022/03/15 04:58:41;;;;;;;103.77;44.23;;;;;;;;;;5034554;28;20471;-63
2022/03/15 05:01:07;;;;;;;111.10;45.77;;;;;;;;;;5040877;28;20878;-63
2022/03/15 05:03:35;;;;;;;96.47;42.00;;;;;;;;;;5040038;28;20443;-63
2022/03/15 05:06:03;;;;;;;98.87;43.23;;;;;;;;;;5042187;28;20509;-63
2022/03/15 05:08:29;;;;;;;90.20;40.20;;;;;;;;;;5045971;28;20439;-63
2022/03/15 05:11:08;;;;;;;92.43;39.90;;;;;;;;;;5046893;28;21304;-63
2022/03/15 05:13:43;;;;;;;97.13;42.40;;;;;;;;;;5047513;28;20970;-63
2022/03/15 05:16:10;;;;;;;94.10;39.17;;;;;;;;;;5045256;28;20899;-63
2022/03/15 05:18:37;;;;;;;86.03;39.67;;;;;;;;;;5048202;28;20443;-63
2022/03/15 05:21:04;;;;;;;91.50;39.40;;;;;;;;;;5039205;28;20463;-64
2022/03/15 05:23:31;;;;;;;84.80;39.03;;;;;;;;;;5036986;28;20437;-63
2022/03/15 05:25:58;;;;;;;92.10;40.73;;;;;;;;;;5048158;28;20878;-63
2022/03/15 05:28:25;;;;;;;94.77;41.97;;;;;;;;;;5048317;28;20424;-63
2022/03/15 05:30:55;;;;;;;87.37;37.40;;;;;;;;;;5036324;28;20429;-63
2022/03/15 05:33:22;;;;;;;86.77;38.93;;;;;;;;;;5068331;28;20435;-63
2022/03/15 05:35:49;;;;;;;87.67;38.13;;;;;;;;;;5068421;28;20433;-63
2022/03/15 05:38:16;;;;;;;98.40;40.57;;;;;;;;;;5068384;28;20426;-63
2022/03/15 05:40:43;;;;;;;90.40;40.50;;;;;;;;;;5053394;28;20541;-64
2022/03/15 05:43:11;;;;;;;88.43;39.97;;;;;;;;;;5044999;28;20432;-63
2022/03/15 05:45:38;;;;;;;87.33;38.43;;;;;;;;;;5048333;28;20563;-63
2022/03/15 05:48:05;;;;;;;91.27;40.33;;;;;;;;;;5048137;28;20421;-63
2022/03/15 05:50:31;;;;;;;95.27;41.50;;;;;;;;;;5054296;28;20829;-63
2022/03/15 05:53:00;;;;;;;91.70;38.80;;;;;;;;;;5072308;28;20519;-63
2022/03/15 05:55:26;;;;;;;94.10;41.97;;;;;;;;;;5059289;28;20433;-63
2022/03/15 05:57:53;;;;;;;96.57;41.13;;;;;;;;;;5032381;28;20986;-64
2022/03/15 06:00:20;;;;;;;88.77;39.37;;;;;;;;;;5035452;28;20450;-63
2022/03/15 06:02:47;;;;;;;91.87;40.03;;;;;;;;;;5037498;28;20504;-63
2022/03/15 06:05:14;;;;;;;83.60;37.67;;;;;;;;;;5046870;28;20817;-63
2022/03/15 06:07:44;;;;;;;86.00;38.50;;;;;;;;;;5042995;28;20810;-64
2022/03/15 06:10:11;;;;;;;79.40;35.57;;;;;;;;;;5031949;28;20480;-63
2022/03/15 06:12:38;;;;;;;74.20;35.17;;;;;;;;;;5033003;28;20446;-63
2022/03/15 06:15:05;;;;;;;76.83;37.77;;;;;;;;;;5032068;28;20437;-63
2022/03/15 06:17:32;;;;;;;74.50;34.60;;;;;;;;;;5045274;28;20443;-65
2022/03/15 06:19:59;;;;;;;76.27;35.40;;;;;;;;;;5042350;28;21170;-64
2022/03/15 06:22:28;;;;;;;71.80;34.90;;;;;;;;;;5031860;28;20434;-64
2022/03/15 06:24:55;;;;;;;75.20;36.63;;;;;;;;;;5038562;28;20916;-63
2022/03/15 06:27:21;;;;;;;76.50;37.37;;;;;;;;;;5062831;28;20519;-64
2022/03/15 06:29:50;;;;;;;75.10;36.70;;;;;;;;;;5038211;28;20995;-64
2022/03/15 06:32:18;;;;;;;73.73;35.37;;;;;;;;;;5031632;28;20453;-64
2022/03/15 06:34:49;;;;;;;68.03;36.10;;;;;;;;;;5042657;28;20436;-64
2022/03/15 06:37:17;;;;;;;67.87;34.50;;;;;;;;;;5031782;28;20433;-64
2022/03/15 06:39:44;;;;;;;77.07;35.80;;;;;;;;;;5033158;28;20426;-64
2022/03/15 06:42:11;;;;;;;82.87;37.10;;;;;;;;;;5031383;28;20464;-64
2022/03/15 06:44:39;;;;;;;69.37;37.07;;;;;;;;;;5041351;28;20519;-64
2022/03/15 06:47:06;;;;;;;75.43;37.40;;;;;;;;;;5037552;28;20838;-63
2022/03/15 06:49:33;;;;;;;72.77;37.47;;;;;;;;;;5051263;28;20944;-63
2022/03/15 06:52:00;;;;;;;65.50;35.43;;;;;;;;;;5043008;28;20427;-63
2022/03/15 06:54:27;;;;;;;75.73;37.13;;;;;;;;;;5031497;28;20864;-63
2022/03/15 06:56:54;;;;;;;79.73;37.13;;;;;;;;;;5042796;28;20987;-64
2022/03/15 06:59:21;;;;;;;71.60;36.37;;;;;;;;;;5038518;28;20450;-64
2022/03/15 07:01:48;;;;;;;69.47;36.63;;;;;;;;;;5055373;28;20434;-63
2022/03/15 07:04:17;;;;;;;66.43;35.43;;;;;;;;;;5043378;28;20441;-64
2022/03/15 07:06:44;;;;;;;66.73;35.53;;;;;;;;;;5050989;28;20482;-64
2022/03/15 07:09:11;;;;;;;67.53;35.53;;;;;;;;;;5051033;28;20438;-64
2022/03/15 07:11:38;;;;;;;71.40;37.77;;;;;;;;;;5050890;28;20516;-64
2022/03/15 07:14:06;;;;;;;111.43;40.17;;;;;;;;;;5050855;28;20479;-64
2022/03/15 07:16:32;;;;;;;70.30;39.00;;;;;;;;;;5050508;28;20436;-64
2022/03/15 07:18:59;;;;;;;66.43;35.13;;;;;;;;;;5050690;28;20418;-64
2022/03/15 07:21:26;;;;;;;64.77;34.70;;;;;;;;;;5050616;28;20444;-64
2022/03/15 07:23:53;;;;;;;61.57;33.67;;;;;;;;;;5050732;28;20187;-64
2022/03/15 07:26:20;;;;;;;61.27;35.67;;;;;;;;;;5050399;28;20579;-64
2022/03/15 07:28:46;;;;;;;54.47;33.10;;;;;;;;;;5050589;28;20191;-64
2022/03/15 07:31:13;;;;;;;56.93;35.03;;;;;;;;;;5050716;28;20193;-65
2022/03/15 07:33:40;;;;;;;54.43;33.97;;;;;;;;;;5050585;28;20281;-64
2022/03/15 07:36:07;;;;;;;56.27;32.70;;;;;;;;;;5050634;28;20197;-64
2022/03/15 07:38:34;;;;;;;50.67;32.27;;;;;;;;;;5050323;28;20197;-64
2022/03/15 07:41:01;;;;;;;59.63;32.80;;;;;;;;;;5049948;28;20237;-65
2022/03/15 07:43:28;;;;;;;53.27;32.73;;;;;;;;;;5050429;28;20182;-63
2022/03/15 07:45:57;;;;;;;48.57;31.60;;;;;;;;;;5049062;28;20223;-63
2022/03/15 07:48:23;;;;;;;53.40;32.23;;;;;;;;;;5050025;28;20193;-63
2022/03/15 07:50:52;;;;;;;49.77;32.20;;;;;;;;;;5050231;28;20907;-64
2022/03/15 07:53:19;;;;;;;49.97;31.17;;;;;;;;;;5050045;28;20201;-64
2022/03/15 07:55:46;;;;;;;51.23;33.20;;;;;;;;;;5050189;28;20194;-64
2022/03/15 07:58:13;;;;;;;49.43;32.40;;;;;;;;;;5049737;28;20182;-63
2022/03/15 08:00:39;;;;;;;51.27;33.30;;;;;;;;;;5050659;28;20193;-63
2022/03/15 08:03:07;;;;;;;48.90;31.80;;;;;;;;;;5048032;28;20252;-63
2022/03/15 08:05:33;;;;;;;45.33;30.00;;;;;;;;;;5049935;28;20234;-63
2022/03/15 08:08:00;;;;;;;47.23;30.80;;;;;;;;;;5038493;28;20195;-63
2022/03/15 08:10:27;;;;;;;46.43;30.00;;;;;;;;;;5029997;28;20179;-63
2022/03/15 08:12:55;;;;;;;44.53;28.80;;;;;;;;;;5029255;28;20203;-63
2022/03/15 08:15:21;;;;;;;47.30;29.97;;;;;;;;;;5029703;28;20251;-63
2022/03/15 08:17:48;;;;;;;80.23;40.40;;;;;;;;;;5029545;28;20313;-64
2022/03/15 08:20:18;;;;;;;79.77;38.90;;;;;;;;;;5029601;28;20184;-63
2022/03/15 08:22:45;;;;;;;63.33;36.10;;;;;;;;;;5029637;28;20762;-64
2022/03/15 08:25:12;;;;;;;63.90;34.40;;;;;;;;;;5028521;28;20282;-64
2022/03/15 08:27:39;;;;;;;53.10;30.70;;;;;;;;;;5029782;28;20721;-63
2022/03/15 08:30:06;;;;;;;47.53;30.90;;;;;;;;;;5029686;28;20186;-64
2022/03/15 08:32:33;;;;;;;54.77;32.73;;;;;;;;;;5029357;28;20187;-63
2022/03/15 08:34:59;;;;;;;44.07;26.63;;;;;;;;;;5027846;28;21023;-64
2022/03/15 08:37:26;;;;;;;42.97;26.83;;;;;;;;;;5029589;28;20199;-64
2022/03/15 08:39:53;;;;;;;46.63;26.10;;;;;;;;;;5029639;28;20191;-64
2022/03/15 08:42:22;;;;;;;44.23;25.23;;;;;;;;;;5029095;28;20188;-64
2022/03/15 08:44:49;;;;;;;43.07;27.20;;;;;;;;;;5029334;28;20202;-64
2022/03/15 08:47:15;;;;;;;43.57;26.40;;;;;;;;;;5029031;28;20222;-64
2022/03/15 08:49:43;;;;;;;45.83;25.80;;;;;;;;;;5029268;28;20651;-64
2022/03/15 08:52:10;;;;;;;42.90;25.90;;;;;;;;;;5029671;28;20199;-64
2022/03/15 08:54:37;;;;;;;40.70;26.33;;;;;;;;;;5029445;28;20188;-64
2022/03/15 08:57:04;;;;;;;43.90;25.33;;;;;;;;;;5028919;28;20188;-64
2022/03/15 08:59:30;;;;;;;39.73;25.83;;;;;;;;;;5028935;28;20278;-64
2022/03/15 09:01:57;;;;;;;39.37;24.83;;;;;;;;;;5029010;28;20990;-64
2022/03/15 09:04:25;;;;;;;39.03;24.97;;;;;;;;;;5028839;28;20190;-63
2022/03/15 09:06:52;;;;;;;38.67;24.23;;;;;;;;;;5030724;28;20230;-65
2022/03/15 09:09:21;;;;;;;37.57;22.87;;;;;;;;;;5048559;28;20204;-64
2022/03/15 09:11:49;;;;;;;36.97;22.97;;;;;;;;;;5048754;28;20202;-64
2022/03/15 09:14:15;;;;;;;35.07;21.03;;;;;;;;;;5048851;28;20904;-64
2022/03/15 09:16:42;;;;;;;36.90;22.00;;;;;;;;;;5048312;28;20191;-64
2022/03/15 09:19:10;;;;;;;34.80;21.70;;;;;;;;;;5048576;28;20237;-64
2022/03/15 09:21:36;;;;;;;34.87;20.63;;;;;;;;;;5048779;28;20187;-65
2022/03/15 09:24:03;;;;;;;32.60;21.90;;;;;;;;;;5047623;28;20252;-64
2022/03/15 09:26:30;;;;;;;35.70;22.70;;;;;;;;;;5048601;28;20219;-64
2022/03/15 09:28:57;;;;;;;36.20;23.23;;;;;;;;;;5048574;28;20186;-65
2022/03/15 09:31:24;;;;;;;35.07;23.07;;;;;;;;;;5048610;28;20586;-64
2022/03/15 09:33:50;;;;;;;32.07;21.53;;;;;;;;;;5048830;28;20277;-64
2022/03/15 09:36:17;;;;;;;31.80;22.97;;;;;;;;;;5048358;28;20245;-64
2022/03/15 09:38:44;;;;;;;34.43;20.87;;;;;;;;;;5047113;28;20211;-65
2022/03/15 09:41:11;;;;;;;36.80;21.20;;;;;;;;;;5048363;28;20616;-65
2022/03/15 09:43:38;;;;;;;41.83;23.37;;;;;;;;;;5046946;28;20853;-65
2022/03/15 09:46:05;;;;;;;35.93;22.33;;;;;;;;;;5048357;28;20755;-64
2022/03/15 09:48:52;;;;;;;33.47;21.73;;;;;;;;;;5048847;28;20986;-65
2022/03/15 09:51:19;;;;;;;34.87;21.97;;;;;;;;;;5048366;28;20187;-65
2022/03/15 09:53:48;;;;;;;37.57;21.43;;;;;;;;;;5047219;28;20267;-65
2022/03/15 09:56:19;;;;;;;35.60;21.93;;;;;;;;;;5048164;28;20201;-64
2022/03/15 09:58:45;;;;;;;37.37;23.77;;;;;;;;;;5048526;28;20197;-65
2022/03/15 10:01:14;;;;;;;38.47;22.17;;;;;;;;;;5048538;28;20200;-65
2022/03/15 10:03:41;;;;;;;30.07;21.57;;;;;;;;;;5046894;28;20195;-65
2022/03/15 10:06:07;;;;;;;33.87;21.23;;;;;;;;;;5048310;28;20215;-65
2022/03/15 10:08:34;;;;;;;28.40;18.23;;;;;;;;;;5032390;28;20188;-65
2022/03/15 10:11:02;;;;;;;25.60;17.17;;;;;;;;;;5028336;28;20554;-65
2022/03/15 10:13:29;;;;;;;25.00;17.83;;;;;;;;;;5028371;28;20254;-65
2022/03/15 10:15:56;;;;;;;28.47;16.93;;;;;;;;;;5027381;28;20253;-65
2022/03/15 10:18:24;;;;;;;25.63;16.93;;;;;;;;;;5028105;28;20195;-65
2022/03/15 10:20:51;;;;;;;27.33;16.73;;;;;;;;;;5028216;28;20245;-65
2022/03/15 10:23:21;;;;;;;22.37;16.80;;;;;;;;;;5028058;28;20195;-65
2022/03/15 10:25:49;;;;;;;22.70;16.40;;;;;;;;;;5028133;28;20223;-66
2022/03/15 10:28:16;;;;;;;23.97;17.20;;;;;;;;;;5026692;28;20253;-66
2022/03/15 10:30:43;;;;;;;24.10;17.67;;;;;;;;;;5028160;28;20187;-66
2022/03/15 10:33:10;;;;;;;25.03;16.97;;;;;;;;;;5026853;28;20270;-66
2022/03/15 10:35:38;;;;;;;29.40;19.33;;;;;;;;;;5030015;28;20578;-66
2022/03/15 10:38:06;;;;;;;23.17;16.67;;;;;;;;;;5031754;28;20192;-65
2022/03/15 10:40:36;;;;;;;23.53;16.77;;;;;;;;;;5031410;28;20578;-65
2022/03/15 10:43:17;;;;;;;24.57;17.13;;;;;;;;;;5030531;28;20192;-65
2022/03/15 10:45:45;;;;;;;27.67;17.27;;;;;;;;;;5031624;28;20282;-66
2022/03/15 10:48:31;;;;;;;23.57;16.73;;;;;;;;;;5031358;28;20310;-65
2022/03/15 10:50:57;;;;;;;26.37;17.37;;;;;;;;;;5031415;28;20462;-66
2022/03/15 10:53:28;;;;;;;23.13;16.47;;;;;;;;;;5030019;28;20706;-66
2022/03/15 10:56:11;;;;;;;22.03;16.93;;;;;;;;;;5031622;28;20211;-65
2022/03/15 10:58:45;;;;;;;25.13;17.77;;;;;;;;;;5029943;28;20574;-65
2022/03/15 11:01:12;;;;;;;25.53;18.57;;;;;;;;;;5031162;28;20183;-65
2022/03/15 11:03:39;;;;;;;25.83;16.83;;;;;;;;;;5031449;28;20194;-65
2022/03/15 11:06:08;;;;;;;26.07;17.60;;;;;;;;;;5030047;28;20223;-65
2022/03/15 11:08:36;;;;;;;25.83;16.53;;;;;;;;;;5046811;28;20207;-64
2022/03/15 11:11:06;;;;;;;27.47;17.90;;;;;;;;;;5049738;28;20215;-65
2022/03/15 11:13:33;;;;;;;24.50;17.40;;;;;;;;;;5049771;28;20599;-65
2022/03/15 11:16:00;;;;;;;25.03;17.13;;;;;;;;;;5050897;28;20187;-65
2022/03/15 11:18:29;;;;;;;26.03;18.20;;;;;;;;;;5033338;28;20622;-65
2022/03/15 11:20:56;;;;;;;28.30;17.83;;;;;;;;;;5051061;28;20183;-65
2022/03/15 11:23:25;;;;;;;25.97;18.10;;;;;;;;;;5050675;28;20209;-66
2022/03/15 11:25:56;;;;;;;26.83;17.43;;;;;;;;;;5051055;28;20572;-65
2022/03/15 11:28:24;;;;;;;25.03;18.23;;;;;;;;;;5050674;28;20242;-66
2022/03/15 11:30:51;;;;;;;29.23;18.73;;;;;;;;;;5051117;28;20187;-65
2022/03/15 11:33:18;;;;;;;23.27;18.03;;;;;;;;;;5049397;28;20248;-65
2022/03/15 11:35:44;;;;;;;25.27;18.73;;;;;;;;;;5049373;28;20183;-65
2022/03/15 11:38:13;;;;;;;25.10;18.37;;;;;;;;;;5050718;28;20197;-65
2022/03/15 11:40:41;;;;;;;23.53;17.80;;;;;;;;;;5048721;28;20297;-65
2022/03/15 11:43:10;;;;;;;25.37;19.23;;;;;;;;;;5050501;28;20179;-65
2022/03/15 11:45:40;;;;;;;26.10;18.37;;;;;;;;;;5050514;28;20194;-66
2022/03/15 11:48:11;;;;;;;25.33;18.40;;;;;;;;;;5048363;28;20222;-65
2022/03/15 11:50:44;;;;;;;27.17;18.97;;;;;;;;;;5050425;28;20240;-65
2022/03/15 11:53:35;;;;;;;26.20;18.47;;;;;;;;;;5050566;28;20240;-65
2022/03/15 11:56:04;;;;;;;28.87;19.03;;;;;;;;;;5050016;28;20191;-65
2022/03/15 11:58:30;;;;;;;26.00;19.20;;;;;;;;;;5050199;28;20274;-65
2022/03/15 12:01:08;;;;;;;26.57;19.97;;;;;;;;;;5050215;28;20986;-65
2022/03/15 12:03:47;;;;;;;28.23;19.47;;;;;;;;;;5050436;28;20191;-65
2022/03/15 12:06:17;;;;;;;26.93;19.87;;;;;;;;;;5049915;28;20182;-65
2022/03/15 12:08:51;;;;;;;28.73;19.60;;;;;;;;;;5033045;28;20245;-65
2022/03/15 12:11:33;;;;;;;28.70;19.87;;;;;;;;;;5029782;28;20203;-65
2022/03/15 12:14:11;;;;;;;29.80;20.13;;;;;;;;;;5029824;28;20191;-65
2022/03/15 12:16:41;;;;;;;28.40;19.83;;;;;;;;;;5029438;28;20187;-65
2022/03/15 12:21:57;;;;;;;31.63;21.63;;;;;;;;;;5029991;28;20218;-65
2022/03/15 12:24:30;;;;;;;31.27;20.67;;;;;;;;;;5029633;28;20191;-65
2022/03/15 12:26:59;;;;;;;27.00;19.93;;;;;;;;;;5029252;28;20203;-65
2022/03/15 12:29:27;;;;;;;29.90;20.60;;;;;;;;;;5029619;28;20271;-65
2022/03/15 12:31:55;;;;;;;29.80;20.77;;;;;;;;;;5029483;28;20187;-65
2022/03/15 12:34:22;;;;;;;31.03;22.47;;;;;;;;;;5029160;28;20596;-65
2022/03/15 12:36:58;;;;;;;30.33;21.43;;;;;;;;;;5029777;28;20259;-65
2022/03/15 12:39:26;;;;;;;30.43;21.47;;;;;;;;;;5028188;28;20269;-66
2022/03/15 12:42:03;;;;;;;35.60;22.10;;;;;;;;;;5029131;28;20306;-65
2022/03/15 12:44:44;;;;;;;34.63;22.80;;;;;;;;;;5029485;28;20187;-65
2022/03/15 12:47:15;;;;;;;29.57;21.50;;;;;;;;;;5029068;28;20199;-66
2022/03/15 12:49:42;;;;;;;29.87;21.60;;;;;;;;;;5029099;28;20183;-65
2022/03/15 12:52:13;;;;;;;30.73;22.50;;;;;;;;;;5027853;28;20223;-64
2022/03/15 12:54:42;;;;;;;28.63;20.70;;;;;;;;;;5029396;28;20295;-63
2022/03/15 12:57:13;;;;;;;27.97;20.33;;;;;;;;;;5027917;28;20191;-63
2022/03/15 12:59:48;;;;;;;28.47;20.37;;;;;;;;;;5028918;28;20196;-63
2022/03/15 13:02:16;;;;;;;33.60;22.37;;;;;;;;;;5028772;28;20192;-64
2022/03/15 13:04:52;;;;;;;27.30;19.50;;;;;;;;;;5029223;28;20290;-64
2022/03/15 13:07:29;;;;;;;29.00;21.63;;;;;;;;;;5033483;28;20198;-63
2022/03/15 13:09:56;;;;;;;30.10;20.53;;;;;;;;;;5049155;28;20240;-63
2022/03/15 13:12:27;;;;;;;28.07;20.67;;;;;;;;;;5048653;28;20181;-64
2022/03/15 13:14:55;;;;;;;28.33;21.03;;;;;;;;;;5048678;28;20181;-64
2022/03/15 13:17:22;;;;;;;30.17;19.40;;;;;;;;;;5048154;28;20179;-63
2022/03/15 13:19:50;;;;;;;24.83;17.37;;;;;;;;;;5048800;28;20665;-63
2022/03/15 13:22:24;;;;;;;24.23;16.60;;;;;;;;;;5048639;28;20195;-63
2022/03/15 13:24:51;;;;;;;24.90;16.77;;;;;;;;;;5047897;28;20186;-63
2022/03/15 13:27:18;;;;;;;22.93;17.17;;;;;;;;;;5048276;28;20202;-64
2022/03/15 13:29:47;;;;;;;25.33;17.47;;;;;;;;;;5048545;28;20623;-64
2022/03/15 13:32:20;;;;;;;24.87;17.23;;;;;;;;;;5048228;28;20267;-64
2022/03/15 13:34:52;;;;;;;23.00;16.50;;;;;;;;;;5048594;28;20191;-64
2022/03/15 13:37:20;;;;;;;26.03;17.60;;;;;;;;;;5048170;28;20252;-63
2022/03/15 13:39:46;;;;;;;25.37;17.90;;;;;;;;;;5048321;28;20256;-65
2022/03/15 13:42:16;;;;;;;27.63;18.70;;;;;;;;;;5046947;28;20193;-64
2022/03/15 13:44:48;;;;;;;29.70;17.33;;;;;;;;;;5048195;28;20560;-63
2022/03/15 13:47:15;;;;;;;24.33;17.23;;;;;;;;;;5048073;28;20203;-63
2022/03/15 13:49:45;;;;;;;23.17;16.20;;;;;;;;;;5048163;28;20187;-63
2022/03/15 13:52:13;;;;;;;26.93;17.10;;;;;;;;;;5048540;28;20775;-64
2022/03/15 13:54:59;;;;;;;28.47;16.87;;;;;;;;;;5048329;28;20248;-64
2022/03/15 13:57:36;;;;;;;26.70;17.83;;;;;;;;;;5048171;28;20178;-63
2022/03/15 14:00:06;;;;;;;29.57;20.63;;;;;;;;;;5047202;28;20218;-63
2022/03/15 14:02:40;;;;;;;31.23;18.30;;;;;;;;;;5048303;28;20190;-64
2022/03/15 14:05:10;;;;;;;22.03;17.27;;;;;;;;;;5048096;28;20618;-64
2022/03/15 14:07:39;;;;;;;28.87;19.37;;;;;;;;;;5040023;28;20216;-63
2022/03/15 14:10:10;;;;;;;26.63;18.47;;;;;;;;;;5029642;28;20287;-64
2022/03/15 14:12:36;;;;;;;25.83;18.37;;;;;;;;;;5031391;28;20229;-63
2022/03/15 14:15:05;;;;;;;26.73;18.77;;;;;;;;;;5032016;28;20171;-65
2022/03/15 14:17:44;;;;;;;31.57;19.87;;;;;;;;;;5032032;28;20233;-64
2022/03/15 14:20:19;;;;;;;27.33;19.30;;;;;;;;;;5032038;28;20277;-64
2022/03/15 14:22:48;;;;;;;26.67;18.83;;;;;;;;;;5032110;28;20198;-64
2022/03/15 14:25:21;;;;;;;29.67;18.10;;;;;;;;;;5032058;28;20776;-64
2022/03/15 14:27:51;;;;;;;48.20;31.67;;;;;;;;;;5030778;28;20211;-64
2022/03/15 14:30:19;;;;;;;57.47;37.27;;;;;;;;;;5030391;28;20600;-63
2022/03/15 14:32:49;;;;;;;60.03;36.63;;;;;;;;;;5031734;28;20184;-63
2022/03/15 14:35:18;;;;;;;63.13;37.63;;;;;;;;;;5032039;28;20297;-63
2022/03/15 14:37:47;;;;;;;53.37;36.10;;;;;;;;;;5031656;28;20289;-63
2022/03/15 14:40:14;;;;;;;62.40;36.73;;;;;;;;;;5031489;28;20703;-63
2022/03/15 14:42:44;;;;;;;63.00;35.57;;;;;;;;;;5031610;28;20187;-63
2022/03/15 14:45:13;;;;;;;57.60;35.70;;;;;;;;;;5031565;28;20622;-63
2022/03/15 14:47:40;;;;;;;54.47;35.00;;;;;;;;;;5031000;28;20210;-63
2022/03/15 14:50:08;;;;;;;58.33;34.80;;;;;;;;;;5031252;28;20188;-63
2022/03/15 14:52:34;;;;;;;59.67;36.53;;;;;;;;;;5031172;28;20230;-63
2022/03/15 14:55:01;;;;;;;59.60;35.63;;;;;;;;;;5031279;28;20195;-62
2022/03/15 14:57:29;;;;;;;54.70;33.57;;;;;;;;;;5031412;28;20203;-63
2022/03/15 14:59:58;;;;;;;51.27;32.83;;;;;;;;;;5031297;28;20311;-63